createdAt,value
2016-11-22T00:00:54.845Z,10.2
2016-11-22T00:02:00.840Z,10.2
2016-11-22T00:03:06.910Z,10.2
2016-11-22T00:04:12.904Z,10.2
2016-11-22T00:05:18.904Z,10.2
2016-11-22T00:06:24.902Z,10.2
2016-11-22T00:07:30.907Z,10.1
2016-11-22T00:08:36.904Z,10.1
2016-11-22T00:09:42.909Z,10.1
2016-11-22T00:10:48.906Z,10.1
2016-11-22T00:11:54.913Z,10.1
2016-11-22T00:13:00.916Z,10.1
2016-11-22T00:14:06.914Z,10.1
2016-11-22T00:15:12.910Z,10.1
2016-11-22T00:16:18.904Z,10.1
2016-11-22T00:17:24.913Z,10.1
2016-11-22T00:18:30.912Z,10.1
2016-11-22T00:19:36.918Z,10.1
2016-11-22T00:20:42.909Z,10.1
2016-11-22T00:21:48.921Z,10.1
2016-11-22T00:22:54.916Z,10.1
2016-11-22T00:24:00.912Z,10.1
2016-11-22T00:25:06.904Z,10.1
2016-11-22T00:26:12.913Z,10.1
2016-11-22T00:27:18.917Z,10.1
2016-11-22T00:28:24.916Z,10.1
2016-11-22T00:29:30.919Z,10.1
2016-11-22T00:30:36.913Z,10.1
2016-11-22T00:31:41.816Z,10
2016-11-22T00:32:47.818Z,10.1
2016-11-22T00:33:53.815Z,10.1
2016-11-22T00:34:59.812Z,10.1
2016-11-22T00:36:05.812Z,10.1
2016-11-22T00:37:11.816Z,10.1
2016-11-22T00:38:17.814Z,10.1
2016-11-22T00:39:23.816Z,10.1
2016-11-22T00:40:29.813Z,10.2
2016-11-22T00:41:35.808Z,10.1
2016-11-22T00:42:41.804Z,10.1
2016-11-22T00:43:47.807Z,10.1
2016-11-22T00:44:53.807Z,10.1
2016-11-22T00:45:59.807Z,10.1
2016-11-22T00:47:05.814Z,10.1
2016-11-22T00:48:11.820Z,10.1
2016-11-22T00:49:17.817Z,10.1
2016-11-22T00:50:23.812Z,10.1
2016-11-22T00:51:29.812Z,10.1
2016-11-22T00:52:35.816Z,10.1
2016-11-22T00:53:41.823Z,10.1
2016-11-22T00:54:47.822Z,10.1
2016-11-22T00:55:53.819Z,10.1
2016-11-22T00:56:59.824Z,10.1
2016-11-22T00:58:05.834Z,10
2016-11-22T00:59:11.831Z,10.1
2016-11-22T01:00:17.830Z,10.1
2016-11-22T01:01:23.835Z,10
2016-11-22T01:02:29.836Z,10
2016-11-22T01:03:35.840Z,10.1
2016-11-22T01:04:41.843Z,10.1
2016-11-22T01:05:47.845Z,10.1
2016-11-22T01:06:53.842Z,10.1
2016-11-22T01:07:59.847Z,10.1
2016-11-22T01:09:05.842Z,10
2016-11-22T01:10:11.837Z,10
2016-11-22T01:11:17.839Z,10
2016-11-22T01:12:23.835Z,10
2016-11-22T01:13:29.834Z,10
2016-11-22T01:14:35.837Z,10
2016-11-22T01:15:41.835Z,10
2016-11-22T01:16:47.838Z,10
2016-11-22T01:17:53.835Z,10
2016-11-22T01:18:59.839Z,10
2016-11-22T01:20:05.836Z,10
2016-11-22T01:21:11.842Z,10
2016-11-22T01:22:17.847Z,10
2016-11-22T01:23:23.849Z,10
2016-11-22T01:24:29.841Z,9.9
2016-11-22T01:25:35.844Z,9.9
2016-11-22T01:26:41.838Z,10
2016-11-22T01:27:47.836Z,10
2016-11-22T01:28:53.827Z,10
2016-11-22T01:29:59.835Z,10
2016-11-22T01:31:05.834Z,10
2016-11-22T01:32:11.831Z,10
2016-11-22T01:33:17.835Z,10
2016-11-22T01:34:23.838Z,10
2016-11-22T01:35:29.833Z,9.9
2016-11-22T01:36:35.829Z,10
2016-11-22T01:37:41.833Z,10
2016-11-22T01:38:47.835Z,10
2016-11-22T01:39:53.841Z,10
2016-11-22T01:40:59.843Z,10
2016-11-22T01:42:05.843Z,10
2016-11-22T01:43:11.838Z,10
2016-11-22T01:44:17.835Z,10
2016-11-22T01:45:23.842Z,10
2016-11-22T01:46:29.842Z,10
2016-11-22T01:47:35.847Z,10
2016-11-22T01:48:41.841Z,10
2016-11-22T01:49:47.853Z,10
2016-11-22T01:50:53.100Z,10
2016-11-22T01:51:59.095Z,10
2016-11-22T01:53:05.087Z,10
2016-11-22T01:54:11.093Z,10
2016-11-22T01:55:17.090Z,10
2016-11-22T01:56:23.085Z,10
2016-11-22T01:57:29.086Z,10
2016-11-22T01:58:35.093Z,10
2016-11-22T01:59:41.088Z,10
2016-11-22T02:00:47.086Z,10
2016-11-22T02:01:53.087Z,10
2016-11-22T02:02:59.082Z,10
2016-11-22T02:04:05.084Z,10
2016-11-22T02:05:11.083Z,10
2016-11-22T02:06:17.083Z,10
2016-11-22T02:07:23.074Z,10
2016-11-22T02:08:29.071Z,10
2016-11-22T02:09:35.064Z,10
2016-11-22T02:10:41.065Z,10
2016-11-22T02:11:47.065Z,10
2016-11-22T02:12:53.059Z,10
2016-11-22T02:13:59.057Z,10
2016-11-22T02:15:05.061Z,10
2016-11-22T02:16:11.065Z,10
2016-11-22T02:17:17.062Z,10
2016-11-22T02:18:23.059Z,10
2016-11-22T02:19:29.063Z,10.1
2016-11-22T02:20:35.064Z,10.1
2016-11-22T02:21:41.057Z,10.1
2016-11-22T02:22:47.055Z,10.1
2016-11-22T02:23:53.058Z,10.1
2016-11-22T02:24:59.060Z,10.1
2016-11-22T02:26:05.067Z,10.1
2016-11-22T02:27:11.064Z,10.1
2016-11-22T02:28:17.067Z,10.1
2016-11-22T02:29:23.070Z,10.1
2016-11-22T02:30:29.074Z,10.1
2016-11-22T02:31:35.077Z,10.2
2016-11-22T02:32:41.076Z,10.2
2016-11-22T02:33:47.076Z,10.2
2016-11-22T02:34:53.071Z,10.1
2016-11-22T02:35:59.069Z,10.2
2016-11-22T02:37:05.066Z,10.2
2016-11-22T02:38:11.065Z,10.2
2016-11-22T02:39:17.061Z,10.2
2016-11-22T02:40:23.062Z,10.2
2016-11-22T02:41:29.061Z,10.2
2016-11-22T02:42:35.054Z,10.2
2016-11-22T02:43:41.052Z,10.2
2016-11-22T02:44:47.061Z,10.2
2016-11-22T02:45:53.059Z,10.2
2016-11-22T02:46:59.057Z,10.2
2016-11-22T02:48:05.054Z,10.2
2016-11-22T02:49:11.059Z,10.2
2016-11-22T02:50:17.058Z,10.2
2016-11-22T02:51:23.054Z,10.2
2016-11-22T02:52:29.047Z,10.2
2016-11-22T02:53:35.047Z,10.3
2016-11-22T02:54:41.040Z,10.3
2016-11-22T02:55:47.035Z,10.3
2016-11-22T02:56:53.025Z,10.3
2016-11-22T02:57:59.032Z,10.3
2016-11-22T02:59:05.030Z,10.3
2016-11-22T03:00:11.028Z,10.3
2016-11-22T03:01:17.034Z,10.3
2016-11-22T03:02:23.038Z,10.3
2016-11-22T03:03:29.037Z,10.2
2016-11-22T03:04:35.032Z,10.2
2016-11-22T03:05:41.036Z,10.2
2016-11-22T03:06:47.027Z,10.2
2016-11-22T03:07:53.024Z,10.2
2016-11-22T03:08:59.021Z,10.2
2016-11-22T03:10:05.026Z,10.2
2016-11-22T03:11:11.024Z,10.2
2016-11-22T03:12:17.027Z,10.2
2016-11-22T03:13:23.025Z,10.2
2016-11-22T03:14:29.021Z,10.2
2016-11-22T03:15:35.018Z,10.2
2016-11-22T03:16:41.019Z,10.2
2016-11-22T03:17:47.018Z,10.2
2016-11-22T03:18:53.022Z,10.2
2016-11-22T03:19:59.022Z,10.2
2016-11-22T03:21:05.028Z,10.2
2016-11-22T03:22:11.024Z,10.2
2016-11-22T03:23:17.026Z,10.2
2016-11-22T03:24:23.025Z,10.2
2016-11-22T03:25:29.029Z,10.2
2016-11-22T03:26:35.027Z,10.2
2016-11-22T03:27:41.029Z,10.2
2016-11-22T03:28:47.029Z,10.2
2016-11-22T03:29:53.028Z,10.3
2016-11-22T03:30:59.034Z,10.3
2016-11-22T03:32:05.035Z,10.3
2016-11-22T03:33:11.035Z,10.3
2016-11-22T03:34:17.030Z,10.3
2016-11-22T03:35:23.022Z,10.3
2016-11-22T03:36:29.024Z,10.3
2016-11-22T03:37:35.027Z,10.3
2016-11-22T03:38:41.035Z,10.3
2016-11-22T03:39:47.026Z,10.4
2016-11-22T03:40:53.028Z,10.4
2016-11-22T03:41:59.033Z,10.4
2016-11-22T03:43:05.030Z,10.4
2016-11-22T03:44:11.019Z,10.4
2016-11-22T03:45:17.020Z,10.4
2016-11-22T03:46:23.024Z,10.4
2016-11-22T03:47:29.031Z,10.4
2016-11-22T03:48:35.030Z,10.4
2016-11-22T03:49:41.026Z,10.4
2016-11-22T03:50:47.026Z,10.4
2016-11-22T03:51:53.027Z,10.4
2016-11-22T03:52:59.022Z,10.4
2016-11-22T03:54:05.018Z,10.4
2016-11-22T03:55:11.015Z,10.4
2016-11-22T03:56:17.007Z,10.4
2016-11-22T03:57:23.012Z,10.4
2016-11-22T03:58:29.019Z,10.4
2016-11-22T03:59:35.011Z,10.4
2016-11-22T04:00:41.009Z,10.4
2016-11-22T04:01:47.007Z,10.4
2016-11-22T04:02:53.016Z,10.4
2016-11-22T04:03:59.010Z,10.4
2016-11-22T04:05:05.013Z,10.4
2016-11-22T04:06:11.017Z,10.5
2016-11-22T04:07:17.028Z,10.4
2016-11-22T04:08:23.020Z,10.4
2016-11-22T04:09:29.025Z,10.4
2016-11-22T04:10:35.027Z,10.4
2016-11-22T04:11:41.018Z,10.4
2016-11-22T04:12:47.120Z,10.5
2016-11-22T04:13:53.122Z,10.5
2016-11-22T04:14:59.118Z,10.4
2016-11-22T04:16:05.108Z,10.4
2016-11-22T04:17:11.117Z,10.4
2016-11-22T04:18:17.116Z,10.4
2016-11-22T04:19:23.115Z,10.4
2016-11-22T04:20:29.111Z,10.4
2016-11-22T04:21:35.107Z,10.4
2016-11-22T04:22:41.105Z,10.3
2016-11-22T04:23:47.105Z,10.3
2016-11-22T04:24:53.107Z,10.4
2016-11-22T04:25:59.106Z,10.3
2016-11-22T04:27:05.109Z,10.3
2016-11-22T04:28:11.107Z,10.3
2016-11-22T04:29:17.104Z,10.3
2016-11-22T04:30:23.098Z,10.3
2016-11-22T04:31:29.100Z,10.3
2016-11-22T04:32:35.099Z,10.3
2016-11-22T04:33:41.102Z,10.3
2016-11-22T04:34:47.100Z,10.3
2016-11-22T04:35:53.100Z,10.3
2016-11-22T04:36:59.096Z,10.3
2016-11-22T04:38:05.100Z,10.2
2016-11-22T04:39:11.094Z,10.2
2016-11-22T04:40:17.088Z,10.2
2016-11-22T04:41:23.085Z,10.2
2016-11-22T04:42:29.080Z,10.2
2016-11-22T04:43:35.084Z,10.2
2016-11-22T04:44:41.083Z,10.2
2016-11-22T04:45:47.084Z,10.2
2016-11-22T04:46:53.083Z,10.2
2016-11-22T04:47:59.087Z,10.2
2016-11-22T04:49:05.089Z,10.2
2016-11-22T04:50:11.083Z,10.2
2016-11-22T04:51:17.082Z,10.2
2016-11-22T04:52:23.086Z,10.2
2016-11-22T04:53:29.083Z,10.2
2016-11-22T04:54:35.077Z,10.2
2016-11-22T04:55:41.076Z,10.2
2016-11-22T04:56:47.079Z,10.2
2016-11-22T04:57:53.073Z,10.2
2016-11-22T04:58:59.072Z,10.2
2016-11-22T05:00:05.075Z,10.2
2016-11-22T05:01:11.080Z,10.2
2016-11-22T05:02:17.079Z,10.1
2016-11-22T05:03:23.072Z,10.2
2016-11-22T05:04:29.069Z,10.2
2016-11-22T05:05:35.067Z,10.2
2016-11-22T05:06:41.067Z,10.2
2016-11-22T05:07:47.066Z,10.2
2016-11-22T05:08:53.067Z,10.2
2016-11-22T05:09:59.067Z,10.2
2016-11-22T05:11:05.066Z,10.2
2016-11-22T05:12:11.054Z,10.2
2016-11-22T05:13:17.058Z,10.2
2016-11-22T05:14:23.060Z,10.2
2016-11-22T05:15:29.051Z,10.2
2016-11-22T05:16:35.057Z,10.2
2016-11-22T05:17:41.059Z,10.2
2016-11-22T05:18:47.063Z,10.2
2016-11-22T05:19:53.060Z,10.2
2016-11-22T05:20:59.063Z,10.2
2016-11-22T05:22:05.066Z,10.3
2016-11-22T05:23:11.066Z,10.2
2016-11-22T05:24:17.057Z,10.2
2016-11-22T05:25:23.061Z,10.2
2016-11-22T05:26:29.063Z,10.3
2016-11-22T05:27:35.062Z,10.3
2016-11-22T05:28:41.060Z,10.2
2016-11-22T05:29:47.060Z,10.2
2016-11-22T05:30:53.064Z,10.2
2016-11-22T05:31:59.054Z,10.3
2016-11-22T05:33:05.056Z,10.3
2016-11-22T05:34:11.058Z,10.3
2016-11-22T05:35:17.066Z,10.3
2016-11-22T05:36:23.059Z,10.3
2016-11-22T05:37:29.059Z,10.3
2016-11-22T05:38:35.063Z,10.3
2016-11-22T05:39:41.056Z,10.3
2016-11-22T05:40:47.054Z,10.3
2016-11-22T05:41:53.056Z,10.3
2016-11-22T05:42:59.060Z,10.3
2016-11-22T05:44:05.052Z,10.3
2016-11-22T05:45:11.058Z,10.3
2016-11-22T05:46:17.057Z,10.4
2016-11-22T05:47:23.060Z,10.4
2016-11-22T05:48:29.053Z,10.4
2016-11-22T05:49:35.055Z,10.4
2016-11-22T05:50:41.051Z,10.4
2016-11-22T05:51:47.055Z,10.4
2016-11-22T05:52:53.048Z,10.4
2016-11-22T05:53:59.050Z,10.4
2016-11-22T05:55:05.050Z,10.4
2016-11-22T05:56:11.050Z,10.4
2016-11-22T05:57:17.049Z,10.4
2016-11-22T05:58:23.044Z,10.4
2016-11-22T05:59:29.048Z,10.4
2016-11-22T06:00:35.050Z,10.4
2016-11-22T06:01:41.048Z,10.4
2016-11-22T06:02:47.056Z,10.4
2016-11-22T06:04:02.404Z,10.4
2016-11-22T06:05:14.451Z,10.4
2016-11-22T06:06:20.450Z,10.4
2016-11-22T06:07:26.453Z,10.4
2016-11-22T06:08:32.454Z,10.4
2016-11-22T06:09:38.451Z,10.4
2016-11-22T06:10:44.458Z,10.4
2016-11-22T06:11:50.465Z,10.4
2016-11-22T06:12:56.470Z,10.4
2016-11-22T06:14:02.474Z,10.4
2016-11-22T06:15:08.475Z,10.4
2016-11-22T06:16:14.476Z,10.3
2016-11-22T06:17:20.553Z,10.4
2016-11-22T06:18:26.561Z,10.4
2016-11-22T06:19:35.196Z,10.4
2016-11-22T06:20:41.290Z,10.4
2016-11-22T06:21:47.290Z,10.4
2016-11-22T06:22:53.373Z,10.3
2016-11-22T06:23:59.371Z,10.3
2016-11-22T06:25:05.375Z,10.3
2016-11-22T06:26:11.384Z,10.3
2016-11-22T06:27:17.384Z,10.3
2016-11-22T06:28:23.389Z,10.3
2016-11-22T06:29:29.393Z,10.3
2016-11-22T06:30:35.395Z,10.3
2016-11-22T06:31:41.423Z,10.3
2016-11-22T06:32:47.402Z,10.3
2016-11-22T06:33:53.403Z,10.2
2016-11-22T06:34:59.411Z,10.2
2016-11-22T06:36:05.403Z,10.2
2016-11-22T06:37:11.409Z,10.2
2016-11-22T06:38:17.738Z,10.2
2016-11-22T06:39:23.740Z,10.2
2016-11-22T06:40:29.741Z,10.2
2016-11-22T06:41:35.741Z,10.2
2016-11-22T06:42:41.756Z,10.2
2016-11-22T06:43:47.758Z,10.2
2016-11-22T06:44:53.769Z,10.2
2016-11-22T06:45:59.774Z,10.2
2016-11-22T06:47:05.782Z,10.2
2016-11-22T06:48:11.775Z,10.2
2016-11-22T06:49:17.780Z,10.2
2016-11-22T06:50:23.780Z,10.2
2016-11-22T06:51:29.778Z,10.2
2016-11-22T06:52:35.784Z,10.2
2016-11-22T06:53:41.787Z,10.2
2016-11-22T06:54:47.815Z,10.2
2016-11-22T06:55:53.867Z,10.2
2016-11-22T06:57:00.164Z,10.2
2016-11-22T06:58:06.334Z,10.2
2016-11-22T06:59:12.339Z,10.2
2016-11-22T07:00:18.336Z,10.2
2016-11-22T07:01:24.350Z,10.2
2016-11-22T07:02:30.491Z,10.2
2016-11-22T07:03:36.500Z,10.2
2016-11-22T07:04:42.487Z,10.2
2016-11-22T07:05:48.492Z,10.3
2016-11-22T07:06:54.498Z,10.3
2016-11-22T07:08:00.492Z,10.3
2016-11-22T07:09:06.493Z,10.3
2016-11-22T07:10:12.496Z,10.3
2016-11-22T07:11:18.611Z,10.3
2016-11-22T07:12:24.605Z,10.3
2016-11-22T07:13:30.616Z,10.3
2016-11-22T07:14:36.623Z,10.3
2016-11-22T07:15:42.630Z,10.3
2016-11-22T07:16:48.623Z,10.3
2016-11-22T07:17:55.593Z,10.3
2016-11-22T07:19:00.701Z,10.3
2016-11-22T07:20:07.203Z,10.3
2016-11-22T07:21:12.747Z,10.3
2016-11-22T07:22:23.367Z,10.3
2016-11-22T07:23:32.724Z,10.3
2016-11-22T07:24:39.617Z,10.4
2016-11-22T07:25:43.348Z,10.4
2016-11-22T07:26:55.436Z,10.4
2016-11-22T07:28:05.398Z,10.4
2016-11-22T07:29:11.327Z,10.4
2016-11-22T07:30:45.853Z,10.3
2016-11-22T07:31:52.287Z,10.3
2016-11-22T07:32:56.045Z,10.3
2016-11-22T07:34:01.251Z,10.3
2016-11-22T07:35:21.058Z,10.3
2016-11-22T07:36:35.857Z,10.4
2016-11-22T07:37:39.576Z,10.4
2016-11-22T07:38:43.421Z,10.4
2016-11-22T07:39:49.786Z,10.4
2016-11-22T07:40:53.613Z,10.4
2016-11-22T07:42:04.888Z,10.4
2016-11-22T07:43:15.345Z,10.4
2016-11-22T07:44:26.880Z,10.4
2016-11-22T07:45:35.577Z,10.4
2016-11-22T07:46:59.469Z,10.4
2016-11-22T07:48:09.999Z,10.5
2016-11-22T07:49:13.680Z,10.5
2016-11-22T07:50:26.430Z,10.5
2016-11-22T07:51:32.761Z,10.5
2016-11-22T07:52:36.015Z,10.5
2016-11-22T07:53:41.409Z,10.5
2016-11-22T07:54:49.366Z,10.5
2016-11-22T07:55:55.797Z,10.5
2016-11-22T07:57:01.622Z,10.5
2016-11-22T07:58:07.623Z,10.6
2016-11-22T07:59:13.635Z,10.6
2016-11-22T08:00:19.641Z,10.6
2016-11-22T08:01:25.654Z,10.6
2016-11-22T08:02:31.653Z,10.6
2016-11-22T08:03:37.659Z,10.7
2016-11-22T08:04:43.797Z,10.7
2016-11-22T08:05:49.788Z,10.7
2016-11-22T08:06:55.791Z,10.7
2016-11-22T08:08:01.802Z,10.7
2016-11-22T08:09:07.800Z,10.7
2016-11-22T08:10:13.850Z,10.7
2016-11-22T08:11:19.844Z,10.7
2016-11-22T08:12:25.843Z,10.7
2016-11-22T08:13:31.857Z,10.8
2016-11-22T08:14:37.851Z,10.8
2016-11-22T08:15:43.875Z,10.8
2016-11-22T08:16:49.881Z,10.9
2016-11-22T08:17:55.891Z,10.9
2016-11-22T08:19:01.882Z,10.9
2016-11-22T08:20:07.938Z,10.9
2016-11-22T08:21:13.942Z,10.9
2016-11-22T08:22:19.953Z,10.9
2016-11-22T08:23:25.946Z,10.9
2016-11-22T08:24:31.951Z,10.9
2016-11-22T08:25:37.955Z,11
2016-11-22T08:26:43.949Z,11
2016-11-22T08:27:49.945Z,11
2016-11-22T08:28:55.945Z,11
2016-11-22T08:30:01.949Z,11.1
2016-11-22T08:31:07.948Z,11.1
2016-11-22T08:32:13.208Z,11.1
2016-11-22T08:33:18.541Z,11.1
2016-11-22T08:34:24.592Z,11.2
2016-11-22T08:35:30.598Z,11.2
2016-11-22T08:36:36.605Z,11.2
2016-11-22T08:37:42.598Z,11.2
2016-11-22T08:38:48.605Z,11.2
2016-11-22T08:39:54.605Z,11.2
2016-11-22T08:41:00.623Z,11.3
2016-11-22T08:42:06.632Z,11.3
2016-11-22T08:43:12.666Z,11.3
2016-11-22T08:44:18.667Z,11.3
2016-11-22T08:45:24.661Z,11.3
2016-11-22T08:46:30.659Z,11.4
2016-11-22T08:47:36.680Z,11.4
2016-11-22T08:48:42.698Z,11.5
2016-11-22T08:49:48.782Z,11.5
2016-11-22T08:50:54.816Z,11.5
2016-11-22T08:52:00.841Z,11.6
2016-11-22T08:53:06.863Z,11.6
2016-11-22T08:54:12.853Z,11.6
2016-11-22T08:55:18.857Z,11.7
2016-11-22T08:56:24.858Z,11.7
2016-11-22T08:57:30.872Z,11.8
2016-11-22T08:58:36.870Z,11.8
2016-11-22T08:59:42.881Z,11.9
2016-11-22T09:00:48.926Z,12
2016-11-22T09:01:55.128Z,12.1
2016-11-22T09:03:01.127Z,12.1
2016-11-22T09:04:07.131Z,12.2
2016-11-22T09:05:13.137Z,12.3
2016-11-22T09:06:19.142Z,12.3
2016-11-22T09:07:25.140Z,12.3
2016-11-22T09:08:31.149Z,12.4
2016-11-22T09:09:37.153Z,12.5
2016-11-22T09:10:43.154Z,12.4
2016-11-22T09:11:49.155Z,12.6
2016-11-22T09:12:55.160Z,12.6
2016-11-22T09:14:01.157Z,12.7
2016-11-22T09:15:07.159Z,12.8
2016-11-22T09:16:13.162Z,12.9
2016-11-22T09:17:19.162Z,12.9
2016-11-22T09:18:25.160Z,12.9
2016-11-22T09:19:31.169Z,12.9
2016-11-22T09:20:37.176Z,13
2016-11-22T09:21:43.183Z,13.1
2016-11-22T09:22:49.181Z,13.2
2016-11-22T09:23:55.183Z,13.2
2016-11-22T09:25:01.182Z,13.2
2016-11-22T09:26:07.183Z,13.3
2016-11-22T09:27:13.187Z,13.3
2016-11-22T09:28:19.187Z,13.3
2016-11-22T09:29:25.187Z,13.3
2016-11-22T09:30:31.194Z,13.4
2016-11-22T09:31:37.499Z,13.5
2016-11-22T09:32:43.502Z,13.4
2016-11-22T09:33:49.501Z,13.3
2016-11-22T09:34:55.504Z,13.3
2016-11-22T09:36:01.506Z,13.3
2016-11-22T09:37:07.502Z,13.3
2016-11-22T09:38:13.497Z,13.3
2016-11-22T09:39:19.499Z,13.3
2016-11-22T09:40:25.506Z,13.3
2016-11-22T09:41:31.510Z,13.2
2016-11-22T09:42:37.502Z,13.2
2016-11-22T09:43:43.503Z,13.2
2016-11-22T09:44:49.502Z,13.2
2016-11-22T09:45:55.505Z,13.2
2016-11-22T09:47:01.503Z,13.2
2016-11-22T09:48:06.762Z,13.2
2016-11-22T09:49:12.766Z,13.2
2016-11-22T09:50:18.776Z,13.1
2016-11-22T09:51:24.779Z,13.1
2016-11-22T09:52:30.774Z,13.2
2016-11-22T09:53:36.781Z,13.2
2016-11-22T09:54:42.776Z,13.3
2016-11-22T09:55:48.777Z,13.2
2016-11-22T09:56:54.782Z,13.3
2016-11-22T09:58:00.786Z,13.3
2016-11-22T09:59:06.779Z,13.3
2016-11-22T10:00:12.790Z,13.3
2016-11-22T10:01:18.795Z,13.3
2016-11-22T10:02:24.800Z,13.3
2016-11-22T10:03:30.051Z,13.4
2016-11-22T10:04:36.072Z,13.3
2016-11-22T10:05:42.055Z,13.3
2016-11-22T10:06:48.059Z,13.3
2016-11-22T10:07:54.068Z,13.3
2016-11-22T10:09:00.068Z,13.3
2016-11-22T10:10:06.072Z,13.3
2016-11-22T10:11:12.080Z,13.3
2016-11-22T10:12:18.086Z,13.4
2016-11-22T10:13:24.087Z,13.4
2016-11-22T10:14:30.081Z,13.5
2016-11-22T10:15:36.089Z,13.5
2016-11-22T10:16:42.087Z,13.6
2016-11-22T10:17:48.086Z,13.5
2016-11-22T10:18:54.090Z,13.5
2016-11-22T10:20:00.101Z,13.5
2016-11-22T10:21:06.152Z,13.5
2016-11-22T10:22:12.154Z,13.6
2016-11-22T10:23:18.165Z,13.7
2016-11-22T10:24:24.159Z,13.7
2016-11-22T10:25:30.157Z,13.7
2016-11-22T10:26:36.157Z,13.7
2016-11-22T10:27:42.174Z,13.7
2016-11-22T10:28:48.171Z,13.7
2016-11-22T10:29:54.175Z,13.8
2016-11-22T10:31:00.175Z,13.8
2016-11-22T10:32:06.175Z,13.9
2016-11-22T10:33:12.179Z,13.9
2016-11-22T10:34:18.182Z,14
2016-11-22T10:35:24.192Z,14
2016-11-22T10:36:30.195Z,14
2016-11-22T10:37:36.199Z,14
2016-11-22T10:38:42.207Z,14
2016-11-22T10:39:48.214Z,14
2016-11-22T10:40:54.224Z,14.1
2016-11-22T10:42:00.228Z,14.1
2016-11-22T10:43:06.237Z,14.1
2016-11-22T10:44:12.227Z,14.1
2016-11-22T10:45:18.231Z,14.1
2016-11-22T10:46:24.230Z,14.1
2016-11-22T10:47:30.239Z,14.2
2016-11-22T10:48:36.246Z,14.2
2016-11-22T10:49:42.250Z,14.2
2016-11-22T10:50:48.246Z,14.3
2016-11-22T10:51:54.254Z,14.3
2016-11-22T10:53:00.256Z,14.5
2016-11-22T10:54:06.251Z,14.5
2016-11-22T10:55:12.250Z,14.6
2016-11-22T10:56:18.252Z,14.6
2016-11-22T10:57:24.252Z,14.5
2016-11-22T10:58:30.258Z,14.6
2016-11-22T10:59:36.264Z,14.6
2016-11-22T11:00:42.271Z,14.5
2016-11-22T11:01:48.271Z,14.5
2016-11-22T11:02:54.274Z,14.5
2016-11-22T11:04:00.295Z,14.4
2016-11-22T11:05:06.284Z,14.4
2016-11-22T11:06:12.290Z,14.4
2016-11-22T11:07:18.299Z,14.5
2016-11-22T11:08:24.305Z,14.4
2016-11-22T11:09:30.305Z,14.5
2016-11-22T11:10:36.310Z,14.5
2016-11-22T11:11:42.311Z,14.5
2016-11-22T11:12:48.315Z,14.5
2016-11-22T11:13:54.316Z,14.5
2016-11-22T11:15:00.310Z,14.5
2016-11-22T11:16:06.315Z,14.5
2016-11-22T11:17:12.325Z,14.4
2016-11-22T11:18:18.335Z,14.5
2016-11-22T11:19:24.329Z,14.5
2016-11-22T11:20:29.585Z,14.5
2016-11-22T11:21:35.593Z,14.5
2016-11-22T11:22:41.587Z,14.5
2016-11-22T11:23:47.641Z,14.6
2016-11-22T11:24:53.649Z,14.6
2016-11-22T11:25:59.657Z,14.6
2016-11-22T11:27:05.655Z,14.6
2016-11-22T11:28:11.661Z,14.6
2016-11-22T11:29:17.666Z,14.5
2016-11-22T11:30:23.670Z,14.5
2016-11-22T11:31:29.675Z,14.5
2016-11-22T11:32:35.686Z,14.5
2016-11-22T11:33:41.688Z,14.6
2016-11-22T11:34:47.693Z,14.6
2016-11-22T11:35:53.692Z,14.6
2016-11-22T11:36:59.709Z,14.6
2016-11-22T11:38:05.707Z,14.6
2016-11-22T11:39:11.717Z,14.5
2016-11-22T11:40:17.717Z,14.5
2016-11-22T11:41:23.732Z,14.5
2016-11-22T11:42:29.710Z,14.4
2016-11-22T11:43:35.719Z,14.4
2016-11-22T11:44:41.721Z,14.4
2016-11-22T11:45:47.719Z,14.4
2016-11-22T11:46:53.724Z,14.3
2016-11-22T11:47:59.737Z,14.3
2016-11-22T11:49:05.820Z,14.4
2016-11-22T11:50:11.820Z,14.4
2016-11-22T11:51:17.820Z,14.4
2016-11-22T11:52:23.820Z,14.4
2016-11-22T11:53:29.825Z,14.4
2016-11-22T11:54:35.898Z,14.4
2016-11-22T11:55:41.908Z,14.4
2016-11-22T11:56:47.902Z,14.4
2016-11-22T11:57:53.898Z,14.3
2016-11-22T11:58:59.909Z,14.3
2016-11-22T12:00:05.917Z,14.3
2016-11-22T12:01:11.911Z,14.3
2016-11-22T12:02:17.912Z,14.3
2016-11-22T12:03:23.964Z,14.4
2016-11-22T12:04:29.983Z,14.4
2016-11-22T12:05:35.979Z,14.3
2016-11-22T12:06:41.975Z,14.3
2016-11-22T12:07:48.089Z,14.2
2016-11-22T12:08:54.088Z,14.2
2016-11-22T12:10:00.085Z,14.2
2016-11-22T12:11:06.084Z,14.2
2016-11-22T12:12:12.103Z,14.2
2016-11-22T12:13:18.110Z,14.2
2016-11-22T12:14:24.112Z,14.2
2016-11-22T12:15:30.117Z,14.1
2016-11-22T12:16:36.116Z,14.1
2016-11-22T12:17:42.114Z,14.1
2016-11-22T12:18:48.124Z,14.1
2016-11-22T12:19:54.131Z,14.1
2016-11-22T12:21:00.143Z,14.1
2016-11-22T12:22:06.146Z,14.1
2016-11-22T12:23:12.146Z,14.2
2016-11-22T12:24:18.183Z,14.2
2016-11-22T12:25:24.182Z,14.2
2016-11-22T12:26:30.197Z,14.2
2016-11-22T12:27:36.197Z,14.3
2016-11-22T12:28:42.202Z,14.2
2016-11-22T12:29:48.215Z,14.2
2016-11-22T12:30:54.208Z,14.2
2016-11-22T12:32:00.213Z,14.2
2016-11-22T12:33:06.210Z,14.2
2016-11-22T12:34:12.206Z,14.3
2016-11-22T12:35:18.213Z,14.3
2016-11-22T12:36:24.215Z,14.3
2016-11-22T12:37:30.214Z,14.3
2016-11-22T12:38:36.219Z,14.3
2016-11-22T12:39:42.224Z,14.4
2016-11-22T12:40:47.487Z,14.4
2016-11-22T12:41:53.482Z,14.4
2016-11-22T12:42:59.486Z,14.5
2016-11-22T12:44:05.486Z,14.4
2016-11-22T12:45:11.489Z,14.4
2016-11-22T12:46:17.499Z,14.5
2016-11-22T12:47:25.760Z,14.4
2016-11-22T12:48:31.773Z,14.4
2016-11-22T12:49:37.783Z,14.4
2016-11-22T12:50:43.778Z,14.5
2016-11-22T12:51:49.777Z,14.5
2016-11-22T12:52:55.813Z,14.5
2016-11-22T12:54:01.819Z,14.5
2016-11-22T12:55:07.817Z,14.5
2016-11-22T12:56:14.003Z,14.5
2016-11-22T12:57:20.018Z,14.4
2016-11-22T12:58:26.015Z,14.4
2016-11-22T12:59:32.012Z,14.5
2016-11-22T13:00:38.118Z,14.5
2016-11-22T13:01:44.121Z,14.5
2016-11-22T13:02:50.112Z,14.5
2016-11-22T13:03:56.105Z,14.4
2016-11-22T13:05:02.118Z,14.5
2016-11-22T13:06:08.114Z,14.5
2016-11-22T13:07:14.150Z,14.4
2016-11-22T13:08:20.153Z,14.5
2016-11-22T13:09:26.168Z,14.4
2016-11-22T13:10:32.163Z,14.5
2016-11-22T13:11:38.163Z,14.5
2016-11-22T13:12:44.161Z,14.4
2016-11-22T13:13:50.163Z,14.4
2016-11-22T13:14:56.170Z,14.4
2016-11-22T13:16:02.178Z,14.4
2016-11-22T13:17:08.179Z,14.3
2016-11-22T13:18:14.177Z,14.3
2016-11-22T13:19:20.181Z,14.3
2016-11-22T13:20:26.537Z,14.3
2016-11-22T13:21:32.175Z,14.2
2016-11-22T13:22:38.177Z,14.3
2016-11-22T13:23:44.185Z,14.2
2016-11-22T13:24:50.193Z,14.1
2016-11-22T13:25:56.198Z,14.2
2016-11-22T13:27:02.206Z,14.2
2016-11-22T13:28:08.215Z,14.2
2016-11-22T13:29:14.220Z,14.2
2016-11-22T13:30:20.210Z,14.2
2016-11-22T13:31:26.212Z,14.1
2016-11-22T13:32:32.220Z,14.1
2016-11-22T13:33:38.223Z,14.1
2016-11-22T13:34:44.215Z,14.1
2016-11-22T13:35:50.220Z,14.1
2016-11-22T13:36:56.548Z,14.1
2016-11-22T13:38:02.225Z,14.1
2016-11-22T13:39:08.222Z,14.1
2016-11-22T13:40:14.219Z,14.1
2016-11-22T13:41:20.225Z,14.1
2016-11-22T13:42:26.224Z,14.1
2016-11-22T13:43:32.231Z,14
2016-11-22T13:44:38.234Z,14
2016-11-22T13:45:44.238Z,14.1
2016-11-22T13:46:50.233Z,14
2016-11-22T13:47:56.240Z,14
2016-11-22T13:49:02.249Z,14
2016-11-22T13:50:08.239Z,14
2016-11-22T13:51:14.238Z,13.9
2016-11-22T13:52:20.246Z,14
2016-11-22T13:53:26.253Z,13.9
2016-11-22T13:54:32.250Z,13.9
2016-11-22T13:55:38.256Z,13.9
2016-11-22T13:56:44.253Z,13.9
2016-11-22T13:57:50.255Z,13.9
2016-11-22T13:58:56.258Z,13.9
2016-11-22T14:00:02.266Z,13.9
2016-11-22T14:01:08.274Z,13.9
2016-11-22T14:02:14.279Z,13.9
2016-11-22T14:03:20.284Z,13.9
2016-11-22T14:04:26.283Z,13.9
2016-11-22T14:05:32.293Z,13.9
2016-11-22T14:06:38.299Z,13.9
2016-11-22T14:07:44.336Z,13.9
2016-11-22T14:08:50.349Z,13.8
2016-11-22T14:09:55.610Z,13.8
2016-11-22T14:11:01.612Z,13.8
2016-11-22T14:12:07.614Z,13.8
2016-11-22T14:13:14.670Z,13.8
2016-11-22T14:14:25.956Z,13.8
2016-11-22T14:15:34.947Z,13.8
2016-11-22T14:16:40.368Z,13.8
2016-11-22T14:17:47.843Z,13.7
2016-11-22T14:18:53.751Z,13.7
2016-11-22T14:20:00.243Z,13.7
2016-11-22T14:21:08.231Z,13.7
2016-11-22T14:22:13.712Z,13.6
2016-11-22T14:23:20.331Z,13.6
2016-11-22T14:24:26.323Z,13.6
2016-11-22T14:25:32.357Z,13.6
2016-11-22T14:26:38.325Z,13.5
2016-11-22T14:27:44.330Z,13.5
2016-11-22T14:28:50.329Z,13.5
2016-11-22T14:29:56.325Z,13.5
2016-11-22T14:31:02.329Z,13.5
2016-11-22T14:32:08.325Z,13.4
2016-11-22T14:33:14.332Z,13.4
2016-11-22T14:34:20.344Z,13.4
2016-11-22T14:35:26.339Z,13.4
2016-11-22T14:36:32.336Z,13.4
2016-11-22T14:37:38.330Z,13.4
2016-11-22T14:38:44.332Z,13.4
2016-11-22T14:39:50.340Z,13.3
2016-11-22T14:40:56.340Z,13.3
2016-11-22T14:42:02.344Z,13.3
2016-11-22T14:43:08.353Z,13.3
2016-11-22T14:44:14.353Z,13.3
2016-11-22T14:45:20.352Z,13.3
2016-11-22T14:46:26.355Z,13.3
2016-11-22T14:47:32.365Z,13.3